sensor_id;sensor_type;location;lat;lon;timestamp;P1;durP1;ratioP1;P2;durP2;ratioP2
65187;SDS011;51775;51.148;6.950;2022-09-02T00:00:51;0.82;;;0.80;;
65187;SDS011;51775;51.148;6.950;2022-09-02T00:03:18;1.35;;;0.82;;
65187;SDS011;51775;51.148;6.950;2022-09-02T00:05:44;1.35;;;0.90;;
65187;SDS011;51775;51.148;6.950;2022-09-02T00:08:10;1.10;;;0.80;;
65187;SDS011;51775;51.148;6.950;2022-09-02T00:10:37;1.20;;;0.80;;
65187;SDS011;51775;51.148;6.950;2022-09-02T00:13:06;1.00;;;0.80;;
65187;SDS011;51775;51.148;6.950;2022-09-02T00:15:34;1.25;;;0.85;;
65187;SDS011;51775;51.148;6.950;2022-09-02T00:18:00;1.33;;;1.00;;
65187;SDS011;51775;51.148;6.950;2022-09-02T00:20:27;1.63;;;0.93;;
65187;SDS011;51775;51.148;6.950;2022-09-02T00:22:53;1.20;;;0.80;;
65187;SDS011;51775;51.148;6.950;2022-09-02T00:25:19;1.20;;;0.90;;
65187;SDS011;51775;51.148;6.950;2022-09-02T00:27:44;1.08;;;0.80;;
65187;SDS011;51775;51.148;6.950;2022-09-02T00:30:10;1.15;;;0.80;;
65187;SDS011;51775;51.148;6.950;2022-09-02T00:32:36;1.10;;;0.80;;
65187;SDS011;51775;51.148;6.950;2022-09-02T00:35:01;1.30;;;0.80;;
65187;SDS011;51775;51.148;6.950;2022-09-02T00:37:27;1.60;;;0.80;;
65187;SDS011;51775;51.148;6.950;2022-09-02T00:39:52;1.20;;;0.80;;
65187;SDS011;51775;51.148;6.950;2022-09-02T00:42:18;1.38;;;0.85;;
65187;SDS011;51775;51.148;6.950;2022-09-02T00:44:44;1.50;;;0.80;;
65187;SDS011;51775;51.148;6.950;2022-09-02T00:47:09;1.05;;;0.80;;
65187;SDS011;51775;51.148;6.950;2022-09-02T00:49:36;1.20;;;0.90;;
65187;SDS011;51775;51.148;6.950;2022-09-02T00:52:07;1.30;;;0.90;;
65187;SDS011;51775;51.148;6.950;2022-09-02T00:54:44;0.88;;;0.70;;
65187;SDS011;51775;51.148;6.950;2022-09-02T00:57:14;1.08;;;0.90;;
65187;SDS011;51775;51.148;6.950;2022-09-02T00:59:43;1.50;;;0.90;;
65187;SDS011;51775;51.148;6.950;2022-09-02T01:02:15;0.95;;;0.80;;
65187;SDS011;51775;51.148;6.950;2022-09-02T01:04:40;0.95;;;0.73;;
65187;SDS011;51775;51.148;6.950;2022-09-02T01:07:06;0.80;;;0.70;;
65187;SDS011;51775;51.148;6.950;2022-09-02T01:09:31;1.20;;;0.80;;
65187;SDS011;51775;51.148;6.950;2022-09-02T01:11:57;1.00;;;0.70;;
65187;SDS011;51775;51.148;6.950;2022-09-02T01:14:22;1.10;;;0.77;;
65187;SDS011;51775;51.148;6.950;2022-09-02T01:16:49;0.88;;;0.70;;
65187;SDS011;51775;51.148;6.950;2022-09-02T01:19:19;0.95;;;0.80;;
65187;SDS011;51775;51.148;6.950;2022-09-02T01:21:48;0.90;;;0.70;;
65187;SDS011;51775;51.148;6.950;2022-09-02T01:24:15;1.17;;;0.88;;
65187;SDS011;51775;51.148;6.950;2022-09-02T01:26:42;1.25;;;0.90;;
65187;SDS011;51775;51.148;6.950;2022-09-02T01:29:08;1.20;;;0.70;;
65187;SDS011;51775;51.148;6.950;2022-09-02T01:31:34;1.15;;;0.80;;
65187;SDS011;51775;51.148;6.950;2022-09-02T01:33:59;0.93;;;0.77;;
65187;SDS011;51775;51.148;6.950;2022-09-02T01:36:24;0.82;;;0.73;;
65187;SDS011;51775;51.148;6.950;2022-09-02T01:38:50;1.17;;;0.90;;
65187;SDS011;51775;51.148;6.950;2022-09-02T01:41:15;0.90;;;0.70;;
65187;SDS011;51775;51.148;6.950;2022-09-02T01:43:40;1.05;;;0.80;;
65187;SDS011;51775;51.148;6.950;2022-09-02T01:46:06;0.90;;;0.60;;
65187;SDS011;51775;51.148;6.950;2022-09-02T01:48:31;0.82;;;0.80;;
65187;SDS011;51775;51.148;6.950;2022-09-02T01:50:57;0.82;;;0.70;;
65187;SDS011;51775;51.148;6.950;2022-09-02T01:53:25;0.90;;;0.70;;
65187;SDS011;51775;51.148;6.950;2022-09-02T01:55:51;0.98;;;0.70;;
65187;SDS011;51775;51.148;6.950;2022-09-02T01:58:16;0.95;;;0.75;;
65187;SDS011;51775;51.148;6.950;2022-09-02T02:00:42;1.10;;;0.80;;
65187;SDS011;51775;51.148;6.950;2022-09-02T02:03:08;0.90;;;0.68;;
65187;SDS011;51775;51.148;6.950;2022-09-02T02:05:33;0.80;;;0.70;;
65187;SDS011;51775;51.148;6.950;2022-09-02T02:07:59;1.30;;;0.80;;
65187;SDS011;51775;51.148;6.950;2022-09-02T02:10:24;0.98;;;0.75;;
65187;SDS011;51775;51.148;6.950;2022-09-02T02:12:50;0.93;;;0.70;;
65187;SDS011;51775;51.148;6.950;2022-09-02T02:15:16;0.90;;;0.80;;
65187;SDS011;51775;51.148;6.950;2022-09-02T02:17:42;0.80;;;0.68;;
65187;SDS011;51775;51.148;6.950;2022-09-02T02:20:09;1.30;;;0.70;;
65187;SDS011;51775;51.148;6.950;2022-09-02T02:22:35;1.00;;;0.80;;
65187;SDS011;51775;51.148;6.950;2022-09-02T02:25:01;0.88;;;0.68;;
65187;SDS011;51775;51.148;6.950;2022-09-02T02:27:26;0.90;;;0.75;;
65187;SDS011;51775;51.148;6.950;2022-09-02T02:29:52;1.13;;;0.70;;
65187;SDS011;51775;51.148;6.950;2022-09-02T02:32:17;0.95;;;0.77;;
65187;SDS011;51775;51.148;6.950;2022-09-02T02:34:43;0.85;;;0.70;;
65187;SDS011;51775;51.148;6.950;2022-09-02T02:37:10;0.95;;;0.70;;
65187;SDS011;51775;51.148;6.950;2022-09-02T02:39:35;0.80;;;0.70;;
65187;SDS011;51775;51.148;6.950;2022-09-02T02:42:00;0.80;;;0.70;;
65187;SDS011;51775;51.148;6.950;2022-09-02T02:44:25;0.80;;;0.60;;
65187;SDS011;51775;51.148;6.950;2022-09-02T02:46:51;0.90;;;0.70;;
65187;SDS011;51775;51.148;6.950;2022-09-02T02:49:16;0.90;;;0.70;;
65187;SDS011;51775;51.148;6.950;2022-09-02T02:51:41;1.65;;;0.77;;
65187;SDS011;51775;51.148;6.950;2022-09-02T02:54:07;1.20;;;0.80;;
65187;SDS011;51775;51.148;6.950;2022-09-02T02:56:32;0.82;;;0.70;;
65187;SDS011;51775;51.148;6.950;2022-09-02T02:58:58;0.80;;;0.70;;
65187;SDS011;51775;51.148;6.950;2022-09-02T03:01:24;0.93;;;0.75;;
65187;SDS011;51775;51.148;6.950;2022-09-02T03:03:49;0.80;;;0.68;;
65187;SDS011;51775;51.148;6.950;2022-09-02T03:06:14;1.67;;;0.70;;
65187;SDS011;51775;51.148;6.950;2022-09-02T03:08:40;0.95;;;0.70;;
65187;SDS011;51775;51.148;6.950;2022-09-02T03:11:05;0.77;;;0.70;;
65187;SDS011;51775;51.148;6.950;2022-09-02T03:13:31;0.90;;;0.65;;
65187;SDS011;51775;51.148;6.950;2022-09-02T03:15:57;0.70;;;0.70;;
65187;SDS011;51775;51.148;6.950;2022-09-02T03:18:22;1.85;;;0.80;;
65187;SDS011;51775;51.148;6.950;2022-09-02T03:20:47;0.90;;;0.70;;
65187;SDS011;51775;51.148;6.950;2022-09-02T03:23:12;1.02;;;0.82;;
65187;SDS011;51775;51.148;6.950;2022-09-02T03:25:39;1.00;;;0.80;;
65187;SDS011;51775;51.148;6.950;2022-09-02T03:28:07;0.80;;;0.60;;
65187;SDS011;51775;51.148;6.950;2022-09-02T03:30:32;0.90;;;0.70;;
65187;SDS011;51775;51.148;6.950;2022-09-02T03:33:00;0.80;;;0.70;;
65187;SDS011;51775;51.148;6.950;2022-09-02T03:35:27;0.75;;;0.60;;
65187;SDS011;51775;51.148;6.950;2022-09-02T03:37:53;0.55;;;0.50;;
65187;SDS011;51775;51.148;6.950;2022-09-02T03:40:21;0.50;;;0.50;;
65187;SDS011;51775;51.148;6.950;2022-09-02T03:42:48;0.80;;;0.70;;
65187;SDS011;51775;51.148;6.950;2022-09-02T03:45:14;0.63;;;0.60;;
65187;SDS011;51775;51.148;6.950;2022-09-02T03:47:40;0.88;;;0.77;;
65187;SDS011;51775;51.148;6.950;2022-09-02T03:50:06;0.85;;;0.73;;
65187;SDS011;51775;51.148;6.950;2022-09-02T03:52:32;0.70;;;0.60;;
65187;SDS011;51775;51.148;6.950;2022-09-02T03:54:57;0.60;;;0.60;;
65187;SDS011;51775;51.148;6.950;2022-09-02T03:57:22;1.02;;;0.70;;
65187;SDS011;51775;51.148;6.950;2022-09-02T03:59:48;0.88;;;0.70;;
65187;SDS011;51775;51.148;6.950;2022-09-02T04:02:13;0.80;;;0.70;;
65187;SDS011;51775;51.148;6.950;2022-09-02T04:04:38;1.08;;;0.65;;
65187;SDS011;51775;51.148;6.950;2022-09-02T04:07:04;1.00;;;0.60;;
65187;SDS011;51775;51.148;6.950;2022-09-02T04:09:29;1.33;;;0.75;;
65187;SDS011;51775;51.148;6.950;2022-09-02T04:11:54;0.60;;;0.57;;
65187;SDS011;51775;51.148;6.950;2022-09-02T04:14:20;0.80;;;0.65;;
65187;SDS011;51775;51.148;6.950;2022-09-02T04:16:45;0.85;;;0.60;;
65187;SDS011;51775;51.148;6.950;2022-09-02T04:19:10;0.73;;;0.60;;
65187;SDS011;51775;51.148;6.950;2022-09-02T04:21:36;1.42;;;0.70;;
65187;SDS011;51775;51.148;6.950;2022-09-02T04:24:04;0.63;;;0.55;;
65187;SDS011;51775;51.148;6.950;2022-09-02T04:26:29;0.90;;;0.60;;
65187;SDS011;51775;51.148;6.950;2022-09-02T04:28:55;1.38;;;0.80;;
65187;SDS011;51775;51.148;6.950;2022-09-02T04:31:22;1.02;;;0.70;;
65187;SDS011;51775;51.148;6.950;2022-09-02T04:33:49;1.10;;;0.70;;
65187;SDS011;51775;51.148;6.950;2022-09-02T04:36:15;1.20;;;0.70;;
65187;SDS011;51775;51.148;6.950;2022-09-02T04:38:42;0.82;;;0.65;;
65187;SDS011;51775;51.148;6.950;2022-09-02T04:41:08;1.15;;;0.73;;
65187;SDS011;51775;51.148;6.950;2022-09-02T04:43:36;1.10;;;0.80;;
65187;SDS011;51775;51.148;6.950;2022-09-02T04:46:05;2.00;;;0.60;;
65187;SDS011;51775;51.148;6.950;2022-09-02T04:48:32;0.80;;;0.70;;
65187;SDS011;51775;51.148;6.950;2022-09-02T04:51:02;0.90;;;0.80;;
65187;SDS011;51775;51.148;6.950;2022-09-02T04:53:30;1.20;;;0.80;;
65187;SDS011;51775;51.148;6.950;2022-09-02T04:55:56;1.13;;;0.75;;
65187;SDS011;51775;51.148;6.950;2022-09-02T04:58:21;1.60;;;0.80;;
65187;SDS011;51775;51.148;6.950;2022-09-02T05:00:46;0.80;;;0.65;;
65187;SDS011;51775;51.148;6.950;2022-09-02T05:03:11;0.90;;;0.68;;
65187;SDS011;51775;51.148;6.950;2022-09-02T05:05:37;0.98;;;0.60;;
65187;SDS011;51775;51.148;6.950;2022-09-02T05:08:02;1.75;;;0.60;;
65187;SDS011;51775;51.148;6.950;2022-09-02T05:10:27;1.13;;;0.70;;
65187;SDS011;51775;51.148;6.950;2022-09-02T05:12:53;0.95;;;0.70;;
65187;SDS011;51775;51.148;6.950;2022-09-02T05:15:18;1.10;;;0.70;;
65187;SDS011;51775;51.148;6.950;2022-09-02T05:17:43;1.20;;;0.70;;
65187;SDS011;51775;51.148;6.950;2022-09-02T05:20:09;0.80;;;0.73;;
65187;SDS011;51775;51.148;6.950;2022-09-02T05:22:34;0.80;;;0.70;;
65187;SDS011;51775;51.148;6.950;2022-09-02T05:25:00;1.65;;;0.80;;
65187;SDS011;51775;51.148;6.950;2022-09-02T05:27:26;1.65;;;0.80;;
65187;SDS011;51775;51.148;6.950;2022-09-02T05:29:55;0.90;;;0.70;;
65187;SDS011;51775;51.148;6.950;2022-09-02T05:32:21;0.93;;;0.60;;
65187;SDS011;51775;51.148;6.950;2022-09-02T05:34:46;0.80;;;0.70;;
65187;SDS011;51775;51.148;6.950;2022-09-02T05:37:12;0.70;;;0.65;;
65187;SDS011;51775;51.148;6.950;2022-09-02T05:39:38;0.85;;;0.70;;
65187;SDS011;51775;51.148;6.950;2022-09-02T05:42:03;1.10;;;0.80;;
65187;SDS011;51775;51.148;6.950;2022-09-02T05:44:29;0.85;;;0.70;;
65187;SDS011;51775;51.148;6.950;2022-09-02T05:46:54;0.75;;;0.55;;
65187;SDS011;51775;51.148;6.950;2022-09-02T05:49:19;1.13;;;0.60;;
65187;SDS011;51775;51.148;6.950;2022-09-02T05:51:46;2.35;;;0.80;;
65187;SDS011;51775;51.148;6.950;2022-09-02T05:54:15;2.25;;;0.70;;
65187;SDS011;51775;51.148;6.950;2022-09-02T05:56:42;0.68;;;0.60;;
65187;SDS011;51775;51.148;6.950;2022-09-02T05:59:09;4.38;;;0.70;;
65187;SDS011;51775;51.148;6.950;2022-09-02T06:01:35;0.73;;;0.70;;
65187;SDS011;51775;51.148;6.950;2022-09-02T06:04:01;0.77;;;0.63;;
65187;SDS011;51775;51.148;6.950;2022-09-02T06:06:28;1.15;;;0.80;;
65187;SDS011;51775;51.148;6.950;2022-09-02T06:08:54;1.58;;;0.63;;
65187;SDS011;51775;51.148;6.950;2022-09-02T06:11:19;0.93;;;0.68;;
65187;SDS011;51775;51.148;6.950;2022-09-02T06:13:45;1.95;;;0.70;;
65187;SDS011;51775;51.148;6.950;2022-09-02T06:16:15;1.10;;;0.70;;
65187;SDS011;51775;51.148;6.950;2022-09-02T06:18:41;0.88;;;0.70;;
65187;SDS011;51775;51.148;6.950;2022-09-02T06:21:07;0.77;;;0.60;;
65187;SDS011;51775;51.148;6.950;2022-09-02T06:23:33;0.98;;;0.75;;
65187;SDS011;51775;51.148;6.950;2022-09-02T06:26:00;1.27;;;0.80;;
65187;SDS011;51775;51.148;6.950;2022-09-02T06:28:26;0.95;;;0.70;;
65187;SDS011;51775;51.148;6.950;2022-09-02T06:30:51;0.90;;;0.70;;
65187;SDS011;51775;51.148;6.950;2022-09-02T06:33:16;0.70;;;0.68;;
65187;SDS011;51775;51.148;6.950;2022-09-02T06:35:42;0.60;;;0.45;;
65187;SDS011;51775;51.148;6.950;2022-09-02T06:38:09;1.52;;;0.60;;
65187;SDS011;51775;51.148;6.950;2022-09-02T06:40:44;1.67;;;0.68;;
65187;SDS011;51775;51.148;6.950;2022-09-02T06:43:17;0.60;;;0.60;;
65187;SDS011;51775;51.148;6.950;2022-09-02T06:45:42;0.90;;;0.70;;
65187;SDS011;51775;51.148;6.950;2022-09-02T06:48:08;1.02;;;0.70;;
65187;SDS011;51775;51.148;6.950;2022-09-02T06:50:37;1.00;;;0.70;;
65187;SDS011;51775;51.148;6.950;2022-09-02T06:53:06;1.58;;;0.93;;
65187;SDS011;51775;51.148;6.950;2022-09-02T06:55:33;1.17;;;0.70;;
65187;SDS011;51775;51.148;6.950;2022-09-02T06:57:59;1.55;;;0.95;;
65187;SDS011;51775;51.148;6.950;2022-09-02T07:00:25;1.80;;;0.90;;
65187;SDS011;51775;51.148;6.950;2022-09-02T07:02:50;1.00;;;0.80;;
65187;SDS011;51775;51.148;6.950;2022-09-02T07:05:15;1.88;;;0.90;;
65187;SDS011;51775;51.148;6.950;2022-09-02T07:07:41;4.00;;;0.90;;
65187;SDS011;51775;51.148;6.950;2022-09-02T07:10:09;1.50;;;0.88;;
65187;SDS011;51775;51.148;6.950;2022-09-02T07:12:37;1.10;;;0.85;;
65187;SDS011;51775;51.148;6.950;2022-09-02T07:15:04;1.58;;;0.93;;
65187;SDS011;51775;51.148;6.950;2022-09-02T07:17:30;1.60;;;1.02;;
65187;SDS011;51775;51.148;6.950;2022-09-02T07:19:56;3.80;;;0.90;;
65187;SDS011;51775;51.148;6.950;2022-09-02T07:22:22;1.52;;;1.00;;
65187;SDS011;51775;51.148;6.950;2022-09-02T07:24:47;1.48;;;0.88;;
65187;SDS011;51775;51.148;6.950;2022-09-02T07:27:12;1.67;;;0.90;;
65187;SDS011;51775;51.148;6.950;2022-09-02T07:29:38;2.00;;;0.90;;
65187;SDS011;51775;51.148;6.950;2022-09-02T07:38:06;1.90;;;1.00;;
65187;SDS011;51775;51.148;6.950;2022-09-02T07:40:32;2.92;;;1.10;;
65187;SDS011;51775;51.148;6.950;2022-09-02T07:42:58;2.22;;;1.10;;
65187;SDS011;51775;51.148;6.950;2022-09-02T07:45:23;1.77;;;1.10;;
65187;SDS011;51775;51.148;6.950;2022-09-02T07:47:49;1.90;;;1.00;;
65187;SDS011;51775;51.148;6.950;2022-09-02T07:50:15;1.73;;;1.00;;
65187;SDS011;51775;51.148;6.950;2022-09-02T07:52:40;3.80;;;1.17;;
65187;SDS011;51775;51.148;6.950;2022-09-02T07:55:05;1.55;;;1.02;;
65187;SDS011;51775;51.148;6.950;2022-09-02T07:57:31;1.50;;;0.90;;
65187;SDS011;51775;51.148;6.950;2022-09-02T07:59:56;1.63;;;1.00;;
65187;SDS011;51775;51.148;6.950;2022-09-02T08:02:22;2.47;;;1.17;;
65187;SDS011;51775;51.148;6.950;2022-09-02T08:04:47;1.90;;;1.00;;
65187;SDS011;51775;51.148;6.950;2022-09-02T08:07:15;1.88;;;0.95;;
65187;SDS011;51775;51.148;6.950;2022-09-02T08:09:40;3.17;;;1.08;;
65187;SDS011;51775;51.148;6.950;2022-09-02T08:12:06;1.98;;;1.00;;
65187;SDS011;51775;51.148;6.950;2022-09-02T08:14:31;1.52;;;1.00;;
65187;SDS011;51775;51.148;6.950;2022-09-02T08:16:56;2.45;;;1.25;;
65187;SDS011;51775;51.148;6.950;2022-09-02T08:19:22;2.03;;;1.10;;
65187;SDS011;51775;51.148;6.950;2022-09-02T08:21:49;2.05;;;0.90;;
65187;SDS011;51775;51.148;6.950;2022-09-02T08:24:15;1.38;;;1.00;;
65187;SDS011;51775;51.148;6.950;2022-09-02T08:26:40;2.17;;;1.10;;
65187;SDS011;51775;51.148;6.950;2022-09-02T08:29:06;2.03;;;1.15;;
65187;SDS011;51775;51.148;6.950;2022-09-02T08:31:32;2.00;;;1.10;;
65187;SDS011;51775;51.148;6.950;2022-09-02T08:34:00;2.70;;;0.93;;
65187;SDS011;51775;51.148;6.950;2022-09-02T08:36:25;1.63;;;1.10;;
65187;SDS011;51775;51.148;6.950;2022-09-02T08:38:51;1.42;;;1.00;;
65187;SDS011;51775;51.148;6.950;2022-09-02T08:43:44;2.00;;;1.13;;
65187;SDS011;51775;51.148;6.950;2022-09-02T08:46:11;1.60;;;1.00;;
65187;SDS011;51775;51.148;6.950;2022-09-02T08:48:52;1.60;;;1.00;;
65187;SDS011;51775;51.148;6.950;2022-09-02T08:51:41;1.73;;;1.10;;
65187;SDS011;51775;51.148;6.950;2022-09-02T08:54:27;1.25;;;1.00;;
65187;SDS011;51775;51.148;6.950;2022-09-02T08:59:25;2.88;;;1.00;;
65187;SDS011;51775;51.148;6.950;2022-09-02T09:15:16;1.70;;;0.98;;
65187;SDS011;51775;51.148;6.950;2022-09-02T09:20:21;1.88;;;1.05;;
65187;SDS011;51775;51.148;6.950;2022-09-02T09:25:16;2.78;;;1.10;;
65187;SDS011;51775;51.148;6.950;2022-09-02T09:27:42;3.15;;;1.15;;
65187;SDS011;51775;51.148;6.950;2022-09-02T09:30:08;2.03;;;1.00;;
65187;SDS011;51775;51.148;6.950;2022-09-02T09:32:42;2.80;;;1.45;;
65187;SDS011;51775;51.148;6.950;2022-09-02T09:35:14;2.63;;;1.10;;
65187;SDS011;51775;51.148;6.950;2022-09-02T09:37:42;3.17;;;1.17;;
65187;SDS011;51775;51.148;6.950;2022-09-02T09:40:20;1.45;;;1.00;;
65187;SDS011;51775;51.148;6.950;2022-09-02T09:42:50;1.95;;;1.05;;
65187;SDS011;51775;51.148;6.950;2022-09-02T09:45:24;1.20;;;0.98;;
65187;SDS011;51775;51.148;6.950;2022-09-02T09:53:21;1.53;;;1.07;;
65187;SDS011;51775;51.148;6.950;2022-09-02T09:55:52;1.85;;;1.00;;
65187;SDS011;51775;51.148;6.950;2022-09-02T09:58:18;1.48;;;0.90;;
65187;SDS011;51775;51.148;6.950;2022-09-02T10:00:46;2.10;;;0.95;;
65187;SDS011;51775;51.148;6.950;2022-09-02T10:03:17;2.80;;;1.10;;
65187;SDS011;51775;51.148;6.950;2022-09-02T10:10:52;1.90;;;1.00;;
65187;SDS011;51775;51.148;6.950;2022-09-02T10:13:20;1.40;;;1.00;;
65187;SDS011;51775;51.148;6.950;2022-09-02T10:21:02;1.52;;;0.85;;
65187;SDS011;51775;51.148;6.950;2022-09-02T10:26:37;1.50;;;0.90;;
65187;SDS011;51775;51.148;6.950;2022-09-02T10:31:58;1.15;;;0.88;;
65187;SDS011;51775;51.148;6.950;2022-09-02T10:37:11;2.00;;;1.10;;
65187;SDS011;51775;51.148;6.950;2022-09-02T10:42:17;1.13;;;0.80;;
65187;SDS011;51775;51.148;6.950;2022-09-02T10:44:58;1.85;;;1.10;;
65187;SDS011;51775;51.148;6.950;2022-09-02T10:49:59;0.95;;;0.80;;
65187;SDS011;51775;51.148;6.950;2022-09-02T10:58:03;0.95;;;0.80;;
65187;SDS011;51775;51.148;6.950;2022-09-02T11:00:34;1.23;;;0.93;;
65187;SDS011;51775;51.148;6.950;2022-09-02T11:09:13;1.10;;;0.80;;
65187;SDS011;51775;51.148;6.950;2022-09-02T11:11:23;1.25;;;0.88;;
65187;SDS011;51775;51.148;6.950;2022-09-02T11:19:32;2.80;;;0.88;;
65187;SDS011;51775;51.148;6.950;2022-09-02T11:24:54;1.58;;;0.90;;
65187;SDS011;51775;51.148;6.950;2022-09-02T11:32:33;3.27;;;0.80;;
65187;SDS011;51775;51.148;6.950;2022-09-02T11:35:04;1.50;;;0.98;;
65187;SDS011;51775;51.148;6.950;2022-09-02T11:37:42;2.03;;;0.90;;
65187;SDS011;51775;51.148;6.950;2022-09-02T11:48:34;1.42;;;0.90;;
65187;SDS011;51775;51.148;6.950;2022-09-02T11:54:15;0.80;;;0.68;;
65187;SDS011;51775;51.148;6.950;2022-09-02T11:56:44;1.65;;;0.93;;
65187;SDS011;51775;51.148;6.950;2022-09-02T12:02:36;1.10;;;0.80;;
65187;SDS011;51775;51.148;6.950;2022-09-02T12:07:51;1.17;;;0.90;;
65187;SDS011;51775;51.148;6.950;2022-09-02T12:13:05;2.15;;;1.02;;
65187;SDS011;51775;51.148;6.950;2022-09-02T12:15:30;1.58;;;0.90;;
65187;SDS011;51775;51.148;6.950;2022-09-02T12:23:02;1.42;;;0.90;;
65187;SDS011;51775;51.148;6.950;2022-09-02T12:28:08;3.72;;;1.00;;
65187;SDS011;51775;51.148;6.950;2022-09-02T12:33:29;1.70;;;0.90;;
65187;SDS011;51775;51.148;6.950;2022-09-02T12:35:56;1.38;;;0.90;;
65187;SDS011;51775;51.148;6.950;2022-09-02T12:38:25;1.20;;;0.90;;
65187;SDS011;51775;51.148;6.950;2022-09-02T12:40:53;2.00;;;0.90;;
65187;SDS011;51775;51.148;6.950;2022-09-02T12:43:53;1.55;;;0.90;;
65187;SDS011;51775;51.148;6.950;2022-09-02T12:46:21;1.38;;;0.80;;
65187;SDS011;51775;51.148;6.950;2022-09-02T12:51:58;2.50;;;1.00;;
65187;SDS011;51775;51.148;6.950;2022-09-02T12:57:03;1.23;;;0.90;;
65187;SDS011;51775;51.148;6.950;2022-09-02T12:59:30;3.00;;;1.00;;
65187;SDS011;51775;51.148;6.950;2022-09-02T13:02:00;2.28;;;0.90;;
65187;SDS011;51775;51.148;6.950;2022-09-02T13:18:00;1.35;;;0.90;;
65187;SDS011;51775;51.148;6.950;2022-09-02T13:23:50;1.27;;;0.80;;
65187;SDS011;51775;51.148;6.950;2022-09-02T13:26:47;2.10;;;0.90;;
65187;SDS011;51775;51.148;6.950;2022-09-02T13:32:22;1.30;;;0.75;;
65187;SDS011;51775;51.148;6.950;2022-09-02T13:34:53;1.60;;;0.90;;
65187;SDS011;51775;51.148;6.950;2022-09-02T13:37:33;1.77;;;0.80;;
65187;SDS011;51775;51.148;6.950;2022-09-02T13:40:16;1.77;;;0.95;;
65187;SDS011;51775;51.148;6.950;2022-09-02T13:42:46;0.70;;;0.70;;
65187;SDS011;51775;51.148;6.950;2022-09-02T13:45:16;1.15;;;0.77;;
65187;SDS011;51775;51.148;6.950;2022-09-02T13:47:51;1.13;;;0.80;;
65187;SDS011;51775;51.148;6.950;2022-09-02T13:50:20;2.17;;;1.00;;
65187;SDS011;51775;51.148;6.950;2022-09-02T13:52:50;1.42;;;0.80;;
65187;SDS011;51775;51.148;6.950;2022-09-02T13:55:18;1.10;;;0.90;;
65187;SDS011;51775;51.148;6.950;2022-09-02T13:57:44;0.98;;;0.80;;
65187;SDS011;51775;51.148;6.950;2022-09-02T14:00:24;1.60;;;0.90;;
65187;SDS011;51775;51.148;6.950;2022-09-02T14:03:02;1.25;;;0.82;;
65187;SDS011;51775;51.148;6.950;2022-09-02T14:05:39;1.13;;;0.80;;
65187;SDS011;51775;51.148;6.950;2022-09-02T14:08:17;1.08;;;0.70;;
65187;SDS011;51775;51.148;6.950;2022-09-02T14:10:45;0.90;;;0.80;;
65187;SDS011;51775;51.148;6.950;2022-09-02T14:13:11;1.90;;;0.90;;
65187;SDS011;51775;51.148;6.950;2022-09-02T14:15:38;1.25;;;0.80;;
65187;SDS011;51775;51.148;6.950;2022-09-02T14:20:52;1.60;;;0.88;;
65187;SDS011;51775;51.148;6.950;2022-09-02T14:23:28;1.10;;;0.90;;
65187;SDS011;51775;51.148;6.950;2022-09-02T14:25:56;1.58;;;0.80;;
65187;SDS011;51775;51.148;6.950;2022-09-02T14:28:26;1.17;;;0.80;;
65187;SDS011;51775;51.148;6.950;2022-09-02T14:30:55;1.15;;;0.85;;
65187;SDS011;51775;51.148;6.950;2022-09-02T14:35:59;1.00;;;0.73;;
65187;SDS011;51775;51.148;6.950;2022-09-02T14:38:34;1.17;;;0.70;;
65187;SDS011;51775;51.148;6.950;2022-09-02T14:41:08;1.40;;;1.00;;
65187;SDS011;51775;51.148;6.950;2022-09-02T14:46:24;1.00;;;0.90;;
65187;SDS011;51775;51.148;6.950;2022-09-02T14:48:59;1.10;;;0.82;;
65187;SDS011;51775;51.148;6.950;2022-09-02T14:54:32;1.08;;;0.80;;
65187;SDS011;51775;51.148;6.950;2022-09-02T14:57:02;1.08;;;0.80;;
65187;SDS011;51775;51.148;6.950;2022-09-02T14:59:29;0.85;;;0.80;;
65187;SDS011;51775;51.148;6.950;2022-09-02T15:01:54;0.80;;;0.80;;
65187;SDS011;51775;51.148;6.950;2022-09-02T15:04:22;1.05;;;0.70;;
65187;SDS011;51775;51.148;6.950;2022-09-02T15:06:47;0.90;;;0.80;;
65187;SDS011;51775;51.148;6.950;2022-09-02T15:09:13;1.02;;;0.80;;
65187;SDS011;51775;51.148;6.950;2022-09-02T15:11:40;1.15;;;0.90;;
65187;SDS011;51775;51.148;6.950;2022-09-02T15:14:08;0.88;;;0.80;;
65187;SDS011;51775;51.148;6.950;2022-09-02T15:16:33;1.17;;;0.80;;
65187;SDS011;51775;51.148;6.950;2022-09-02T15:18:59;1.10;;;0.73;;
65187;SDS011;51775;51.148;6.950;2022-09-02T15:21:24;1.08;;;0.80;;
65187;SDS011;51775;51.148;6.950;2022-09-02T15:23:49;1.13;;;0.90;;
65187;SDS011;51775;51.148;6.950;2022-09-02T15:26:15;1.00;;;0.80;;
65187;SDS011;51775;51.148;6.950;2022-09-02T15:28:40;1.13;;;0.80;;
65187;SDS011;51775;51.148;6.950;2022-09-02T15:31:06;1.40;;;0.90;;
65187;SDS011;51775;51.148;6.950;2022-09-02T15:33:31;1.10;;;0.80;;
65187;SDS011;51775;51.148;6.950;2022-09-02T15:36:06;0.90;;;0.80;;
65187;SDS011;51775;51.148;6.950;2022-09-02T15:38:34;1.05;;;0.80;;
65187;SDS011;51775;51.148;6.950;2022-09-02T15:41:10;1.20;;;0.80;;
65187;SDS011;51775;51.148;6.950;2022-09-02T15:43:38;1.00;;;0.70;;
65187;SDS011;51775;51.148;6.950;2022-09-02T15:46:08;1.58;;;0.80;;
65187;SDS011;51775;51.148;6.950;2022-09-02T15:49:00;1.52;;;0.80;;
65187;SDS011;51775;51.148;6.950;2022-09-02T15:51:30;1.55;;;0.80;;
65187;SDS011;51775;51.148;6.950;2022-09-02T15:53:57;1.02;;;0.77;;
65187;SDS011;51775;51.148;6.950;2022-09-02T15:56:25;1.10;;;0.73;;
65187;SDS011;51775;51.148;6.950;2022-09-02T15:59:01;1.95;;;0.90;;
65187;SDS011;51775;51.148;6.950;2022-09-02T16:01:38;0.95;;;0.80;;
65187;SDS011;51775;51.148;6.950;2022-09-02T16:04:05;0.98;;;0.75;;
65187;SDS011;51775;51.148;6.950;2022-09-02T16:06:32;0.98;;;0.80;;
65187;SDS011;51775;51.148;6.950;2022-09-02T16:08:59;1.17;;;0.60;;
65187;SDS011;51775;51.148;6.950;2022-09-02T16:11:24;0.70;;;0.70;;
65187;SDS011;51775;51.148;6.950;2022-09-02T16:13:50;1.15;;;0.80;;
65187;SDS011;51775;51.148;6.950;2022-09-02T16:16:16;0.80;;;0.70;;
65187;SDS011;51775;51.148;6.950;2022-09-02T16:18:42;1.20;;;0.80;;
65187;SDS011;51775;51.148;6.950;2022-09-02T16:21:09;1.00;;;0.80;;
65187;SDS011;51775;51.148;6.950;2022-09-02T16:23:35;1.25;;;0.80;;
65187;SDS011;51775;51.148;6.950;2022-09-02T16:26:22;0.70;;;0.70;;
65187;SDS011;51775;51.148;6.950;2022-09-02T16:28:46;1.13;;;0.80;;
65187;SDS011;51775;51.148;6.950;2022-09-02T16:31:13;1.02;;;0.80;;
65187;SDS011;51775;51.148;6.950;2022-09-02T16:33:39;0.90;;;0.80;;
65187;SDS011;51775;51.148;6.950;2022-09-02T16:36:05;1.30;;;0.82;;
65187;SDS011;51775;51.148;6.950;2022-09-02T16:38:31;1.02;;;0.82;;
65187;SDS011;51775;51.148;6.950;2022-09-02T16:40:56;1.00;;;0.80;;
65187;SDS011;51775;51.148;6.950;2022-09-02T16:43:22;0.90;;;0.73;;
65187;SDS011;51775;51.148;6.950;2022-09-02T16:45:49;1.05;;;0.70;;
65187;SDS011;51775;51.148;6.950;2022-09-02T16:48:15;0.85;;;0.80;;
65187;SDS011;51775;51.148;6.950;2022-09-02T16:50:40;1.00;;;0.80;;
65187;SDS011;51775;51.148;6.950;2022-09-02T16:53:06;0.80;;;0.80;;
65187;SDS011;51775;51.148;6.950;2022-09-02T16:55:31;0.82;;;0.70;;
65187;SDS011;51775;51.148;6.950;2022-09-02T16:57:56;0.85;;;0.70;;
65187;SDS011;51775;51.148;6.950;2022-09-02T17:00:22;1.13;;;0.90;;
65187;SDS011;51775;51.148;6.950;2022-09-02T17:02:47;0.85;;;0.80;;
65187;SDS011;51775;51.148;6.950;2022-09-02T17:05:13;0.85;;;0.70;;
65187;SDS011;51775;51.148;6.950;2022-09-02T17:07:38;1.17;;;0.80;;
65187;SDS011;51775;51.148;6.950;2022-09-02T17:10:04;0.90;;;0.80;;
65187;SDS011;51775;51.148;6.950;2022-09-02T17:12:29;1.35;;;0.80;;
65187;SDS011;51775;51.148;6.950;2022-09-02T17:14:55;0.90;;;0.70;;
65187;SDS011;51775;51.148;6.950;2022-09-02T17:17:20;0.90;;;0.70;;
65187;SDS011;51775;51.148;6.950;2022-09-02T17:19:45;0.85;;;0.70;;
65187;SDS011;51775;51.148;6.950;2022-09-02T17:22:10;1.10;;;0.73;;